createdAt,value
2023-03-05T00:00:02.573Z,0.00
2023-03-05T00:01:02.571Z,0.00
2023-03-05T00:02:02.576Z,0.00
2023-03-05T00:03:02.541Z,0.00
2023-03-05T00:04:02.541Z,0.00
2023-03-05T00:05:02.489Z,0.00
2023-03-05T00:06:02.503Z,0.00
2023-03-05T00:07:02.478Z,0.00
2023-03-05T00:08:02.484Z,0.00
2023-03-05T00:09:02.454Z,0.00
2023-03-05T00:10:02.543Z,0.00
2023-03-05T00:11:02.428Z,0.00
2023-03-05T00:12:02.416Z,0.00
2023-03-05T00:13:02.405Z,0.00
2023-03-05T00:14:02.434Z,0.00
2023-03-05T00:15:02.367Z,0.00
2023-03-05T00:16:02.409Z,0.00
2023-03-05T00:17:02.353Z,0.00
2023-03-05T00:18:02.321Z,0.00
2023-03-05T00:19:02.338Z,0.00
2023-03-05T00:20:02.601Z,0.00
2023-03-05T00:21:02.339Z,0.00
2023-03-05T00:22:02.316Z,0.00
2023-03-05T00:23:02.261Z,0.00
2023-03-05T00:24:02.333Z,0.00
2023-03-05T00:25:02.244Z,0.00
2023-03-05T00:26:02.242Z,0.00
2023-03-05T00:27:02.230Z,0.00
2023-03-05T00:28:02.252Z,0.00
2023-03-05T00:29:02.223Z,0.00
2023-03-05T00:30:02.174Z,0.00
2023-03-05T00:31:02.218Z,0.00
2023-03-05T00:32:02.297Z,0.00
2023-03-05T00:33:02.178Z,0.00
2023-03-05T00:34:02.178Z,0.00
2023-03-05T00:35:02.118Z,0.00
2023-03-05T00:36:02.146Z,0.00
2023-03-05T00:37:02.103Z,0.00
2023-03-05T00:38:02.087Z,0.00
2023-03-05T00:39:02.099Z,0.00
2023-03-05T00:40:02.157Z,0.00
2023-03-05T00:41:02.091Z,0.00
2023-03-05T00:42:02.027Z,0.00
2023-03-05T00:43:02.017Z,0.00
2023-03-05T00:44:02.012Z,0.00
2023-03-05T00:45:02.027Z,0.00
2023-03-05T00:46:02.010Z,0.00
2023-03-05T00:47:01.962Z,0.00
2023-03-05T00:48:02.004Z,0.00
2023-03-05T00:49:01.944Z,0.00
2023-03-05T00:50:01.955Z,0.00
2023-03-05T00:51:01.924Z,0.00
2023-03-05T00:52:01.955Z,0.00
2023-03-05T00:53:01.891Z,0.00
2023-03-05T00:54:01.904Z,0.00
2023-03-05T00:55:01.866Z,0.00
2023-03-05T00:56:01.861Z,0.00
2023-03-05T00:57:01.875Z,0.00
2023-03-05T00:58:01.893Z,0.00
2023-03-05T00:59:01.843Z,0.00
2023-03-05T01:00:01.848Z,0.00
2023-03-05T01:01:01.810Z,0.00
2023-03-05T01:02:01.965Z,0.00
2023-03-05T01:03:01.786Z,0.00
2023-03-05T01:04:01.785Z,0.00
2023-03-05T01:05:01.777Z,0.00
2023-03-05T01:06:01.715Z,0.00
2023-03-05T01:07:01.702Z,0.00
2023-03-05T01:08:01.729Z,0.00
2023-03-05T01:09:01.707Z,0.00
2023-03-05T01:10:01.807Z,0.00
2023-03-05T01:11:01.650Z,0.00
2023-03-05T01:12:01.639Z,0.00
2023-03-05T01:13:01.639Z,0.00
2023-03-05T01:14:01.652Z,0.00
2023-03-05T01:15:01.596Z,0.00
2023-03-05T01:16:01.707Z,0.00
2023-03-05T01:17:01.632Z,0.00
2023-03-05T01:18:01.567Z,0.00
2023-03-05T01:19:01.599Z,0.00
2023-03-05T01:20:01.575Z,0.00
2023-03-05T01:21:01.552Z,0.00
2023-03-05T01:22:01.536Z,0.00
2023-03-05T01:23:01.526Z,0.00
2023-03-05T01:24:01.512Z,0.00
2023-03-05T01:25:01.484Z,0.00
2023-03-05T01:26:01.459Z,0.00
2023-03-05T01:27:01.446Z,0.00
2023-03-05T01:28:01.445Z,0.00
2023-03-05T01:29:01.416Z,0.00
2023-03-05T01:30:01.433Z,0.00
2023-03-05T01:31:01.389Z,0.00
2023-03-05T01:32:01.430Z,0.00
2023-03-05T01:33:01.372Z,0.00
2023-03-05T01:34:01.397Z,0.00
2023-03-05T01:35:01.360Z,0.00
2023-03-05T01:36:01.339Z,0.00
2023-03-05T01:37:01.323Z,0.00
2023-03-05T01:38:01.330Z,0.00
2023-03-05T01:39:01.318Z,0.00
2023-03-05T01:40:01.318Z,0.00
2023-03-05T01:41:01.281Z,0.00
2023-03-05T01:42:01.316Z,0.00
2023-03-05T01:43:01.258Z,0.00
2023-03-05T01:44:01.228Z,0.00
2023-03-05T01:45:01.276Z,0.00
2023-03-05T01:46:01.334Z,0.00
2023-03-05T01:47:01.193Z,0.00
2023-03-05T01:48:01.186Z,0.00
2023-03-05T01:49:01.168Z,0.00
2023-03-05T01:50:01.178Z,0.00
2023-03-05T01:51:01.163Z,0.00
2023-03-05T01:52:01.168Z,0.00
2023-03-05T01:53:01.204Z,0.00
2023-03-05T01:54:01.138Z,0.00
2023-03-05T01:55:01.126Z,0.00
2023-03-05T01:56:01.115Z,0.00
2023-03-05T01:57:01.074Z,0.00
2023-03-05T01:58:01.088Z,0.00
2023-03-05T01:59:01.047Z,0.00
2023-03-05T02:00:01.042Z,0.00
2023-03-05T02:01:01.077Z,0.00
2023-03-05T02:02:00.999Z,0.00
2023-03-05T02:03:00.989Z,0.00
2023-03-05T02:04:01.081Z,0.00
2023-03-05T02:05:00.987Z,0.00
2023-03-05T02:06:00.969Z,0.00
2023-03-05T02:07:00.942Z,0.00
2023-03-05T02:08:00.920Z,0.00
2023-03-05T02:09:00.953Z,0.00
2023-03-05T02:10:00.942Z,0.00
2023-03-05T02:11:00.936Z,0.00
2023-03-05T02:12:00.882Z,0.00
2023-03-05T02:13:00.865Z,0.00
2023-03-05T02:14:00.883Z,0.00
2023-03-05T02:15:00.869Z,0.00
2023-03-05T02:16:00.927Z,0.00
2023-03-05T02:17:00.850Z,0.00
2023-03-05T02:18:00.810Z,0.00
2023-03-05T02:19:00.835Z,0.00
2023-03-05T02:20:00.802Z,0.00
2023-03-05T02:21:00.792Z,0.00
2023-03-05T02:22:00.836Z,0.00
2023-03-05T02:23:00.742Z,0.00
2023-03-05T02:24:00.748Z,0.00
2023-03-05T02:25:00.738Z,0.00
2023-03-05T02:26:00.734Z,0.00
2023-03-05T02:27:00.725Z,0.00
2023-03-05T02:28:00.746Z,0.00
2023-03-05T02:29:00.688Z,0.00
2023-03-05T02:30:00.677Z,0.00
2023-03-05T02:31:00.669Z,0.00
2023-03-05T02:32:00.788Z,0.00
2023-03-05T02:33:00.681Z,0.00
2023-03-05T02:34:00.649Z,0.00
2023-03-05T02:35:00.633Z,0.00
2023-03-05T02:36:00.646Z,0.00
2023-03-05T02:37:00.567Z,0.00
2023-03-05T02:38:00.572Z,0.00
2023-03-05T02:39:00.583Z,0.00
2023-03-05T02:40:00.568Z,0.00
2023-03-05T02:41:00.533Z,0.00
2023-03-05T02:42:00.512Z,0.00
2023-03-05T02:43:00.519Z,0.00
2023-03-05T02:44:00.499Z,0.00
2023-03-05T02:45:00.501Z,0.00
2023-03-05T02:46:00.538Z,0.00
2023-03-05T02:47:00.474Z,0.00
2023-03-05T02:48:00.467Z,0.00
2023-03-05T02:49:00.483Z,0.00
2023-03-05T02:50:00.431Z,0.00
2023-03-05T02:51:00.417Z,0.00
2023-03-05T02:52:00.467Z,0.00
2023-03-05T02:53:00.406Z,0.00
2023-03-05T02:54:00.376Z,0.00
2023-03-05T02:55:00.348Z,0.00
2023-03-05T02:56:00.350Z,0.00
2023-03-05T02:57:00.338Z,0.00
2023-03-05T02:58:00.350Z,0.00
2023-03-05T02:59:00.339Z,0.00
2023-03-05T03:00:00.312Z,0.00
2023-03-05T03:01:00.315Z,0.00
2023-03-05T03:02:00.261Z,0.00
2023-03-05T03:03:00.323Z,0.00
2023-03-05T03:04:00.295Z,0.00
2023-03-05T03:05:00.254Z,0.00
2023-03-05T03:06:00.236Z,0.00
2023-03-05T03:07:00.213Z,0.00
2023-03-05T03:08:00.194Z,0.00
2023-03-05T03:09:00.178Z,0.00
2023-03-05T03:10:00.234Z,0.00
2023-03-05T03:11:00.169Z,0.00
2023-03-05T03:12:00.154Z,0.00
2023-03-05T03:13:00.150Z,0.00
2023-03-05T03:14:00.122Z,0.00
2023-03-05T03:15:00.156Z,0.00
2023-03-05T03:16:00.135Z,0.00
2023-03-05T03:17:00.117Z,0.00
2023-03-05T03:18:00.088Z,0.00
2023-03-05T03:19:00.044Z,0.00
2023-03-05T03:20:00.047Z,0.00
2023-03-05T03:21:00.050Z,0.00
2023-03-05T03:22:00.053Z,0.00
2023-03-05T03:22:59.995Z,0.00
2023-03-05T03:24:00.003Z,0.00
2023-03-05T03:24:59.983Z,0.00
2023-03-05T03:25:59.996Z,0.00
2023-03-05T03:26:59.949Z,0.00
2023-03-05T03:27:59.991Z,0.00
2023-03-05T03:28:59.937Z,0.00
2023-03-05T03:29:59.930Z,0.00
2023-03-05T03:30:59.954Z,0.00
2023-03-05T03:31:59.926Z,0.00
2023-03-05T03:32:59.881Z,0.00
2023-03-05T03:33:59.891Z,0.00
2023-03-05T03:34:59.888Z,0.00
2023-03-05T03:35:59.912Z,0.00
2023-03-05T03:36:59.865Z,0.00
2023-03-05T03:37:59.815Z,0.00
2023-03-05T03:38:59.834Z,0.00
2023-03-05T03:39:59.867Z,0.00
2023-03-05T03:40:59.772Z,0.00
2023-03-05T03:41:59.786Z,0.00
2023-03-05T03:42:59.746Z,0.00
2023-03-05T03:43:59.753Z,0.00
2023-03-05T03:44:59.746Z,0.00
2023-03-05T03:45:59.802Z,0.00
2023-03-05T03:46:59.714Z,0.00
2023-03-05T03:47:59.738Z,0.00
2023-03-05T03:48:59.683Z,0.00
2023-03-05T03:49:59.709Z,0.00
2023-03-05T03:50:59.657Z,0.00
2023-03-05T03:51:59.684Z,0.00
2023-03-05T03:52:59.642Z,0.00
2023-03-05T03:53:59.625Z,0.00
2023-03-05T03:54:59.650Z,0.00
2023-03-05T03:55:59.594Z,0.00
2023-03-05T03:56:59.610Z,0.00
2023-03-05T03:57:59.657Z,0.00
2023-03-05T03:58:59.560Z,0.00
2023-03-05T03:59:59.565Z,0.00
2023-03-05T04:00:59.532Z,0.00
2023-03-05T04:01:59.544Z,0.00
2023-03-05T04:02:59.569Z,0.00
2023-03-05T04:03:59.541Z,0.00
2023-03-05T04:04:59.525Z,0.00
2023-03-05T04:05:59.474Z,0.00
2023-03-05T04:06:59.482Z,0.00
2023-03-05T04:07:59.476Z,0.00
2023-03-05T04:08:59.436Z,0.00
2023-03-05T04:09:59.477Z,0.00
2023-03-05T04:10:59.441Z,0.00
2023-03-05T04:11:59.423Z,0.00
2023-03-05T04:12:59.379Z,0.00
2023-03-05T04:13:59.376Z,0.00
2023-03-05T04:14:59.378Z,0.00
2023-03-05T04:15:59.444Z,0.00
2023-03-05T04:16:59.331Z,0.00
2023-03-05T04:17:59.322Z,0.00
2023-03-05T04:18:59.321Z,0.00
2023-03-05T04:19:59.310Z,0.00
2023-03-05T04:20:59.293Z,0.00
2023-03-05T04:21:59.323Z,0.00
2023-03-05T04:22:59.297Z,0.00
2023-03-05T04:23:59.244Z,0.00
2023-03-05T04:24:59.259Z,0.00
2023-03-05T04:25:59.253Z,0.00
2023-03-05T04:26:59.247Z,0.00
2023-03-05T04:27:59.222Z,0.00
2023-03-05T04:28:59.176Z,0.00
2023-03-05T04:29:59.165Z,0.00
2023-03-05T04:30:59.313Z,0.00
2023-03-05T04:31:59.171Z,0.00
2023-03-05T04:32:59.131Z,0.00
2023-03-05T04:33:59.159Z,0.00
2023-03-05T04:34:59.133Z,0.00
2023-03-05T04:35:59.173Z,0.00
2023-03-05T04:36:59.110Z,0.00
2023-03-05T04:37:59.081Z,0.00
2023-03-05T04:38:59.048Z,0.00
2023-03-05T04:39:59.064Z,0.00
2023-03-05T04:40:59.063Z,0.00
2023-03-05T04:41:59.007Z,0.00
2023-03-05T04:42:59.005Z,0.00
2023-03-05T04:43:58.991Z,0.00
2023-03-05T04:44:58.989Z,0.00
2023-03-05T04:45:59.027Z,0.00
2023-03-05T04:46:58.963Z,0.00
2023-03-05T04:47:59.021Z,0.00
2023-03-05T04:48:58.916Z,0.00
2023-03-05T04:49:58.935Z,0.00
2023-03-05T04:50:58.912Z,0.00
2023-03-05T04:51:58.911Z,0.00
2023-03-05T04:52:58.896Z,0.00
2023-03-05T04:53:58.874Z,0.00
2023-03-05T04:54:58.850Z,0.00
2023-03-05T04:55:58.846Z,0.00
2023-03-05T04:56:58.825Z,0.00
2023-03-05T04:57:58.861Z,0.00
2023-03-05T04:58:58.793Z,0.00
2023-03-05T04:59:58.786Z,0.00
2023-03-05T05:00:58.787Z,0.00
2023-03-05T05:01:58.838Z,0.00
2023-03-05T05:02:58.807Z,0.00
2023-03-05T05:03:58.788Z,0.00
2023-03-05T05:04:58.727Z,0.00
2023-03-05T05:05:58.724Z,0.00
2023-03-05T05:06:58.708Z,0.00
2023-03-05T05:07:58.738Z,0.00
2023-03-05T05:08:58.709Z,0.00
2023-03-05T05:09:58.731Z,0.00
2023-03-05T05:10:58.661Z,0.00
2023-03-05T05:11:58.634Z,0.00
2023-03-05T05:12:58.689Z,0.00
2023-03-05T05:13:58.659Z,0.00
2023-03-05T05:14:58.608Z,0.00
2023-03-05T05:15:58.660Z,0.00
2023-03-05T05:16:58.571Z,0.00
2023-03-05T05:17:59.533Z,0.00
2023-03-05T05:18:58.612Z,0.00
2023-03-05T05:19:58.549Z,0.00
2023-03-05T05:20:58.528Z,0.00
2023-03-05T05:21:58.566Z,0.00
2023-03-05T05:22:58.503Z,0.00
2023-03-05T05:23:58.519Z,0.00
2023-03-05T05:24:58.542Z,0.00
2023-03-05T05:25:58.487Z,0.00
2023-03-05T05:26:58.463Z,4.00
2023-03-05T05:27:58.472Z,4.00
2023-03-05T05:28:58.432Z,0.00
2023-03-05T05:29:58.443Z,4.00
2023-03-05T05:30:58.434Z,4.00
2023-03-05T05:31:58.441Z,4.00
2023-03-05T05:32:58.413Z,4.00
2023-03-05T05:33:58.406Z,4.00
2023-03-05T05:34:58.401Z,4.00
2023-03-05T05:35:58.404Z,4.00
2023-03-05T05:36:58.337Z,8.00
2023-03-05T05:37:58.329Z,12.00
2023-03-05T05:38:58.327Z,16.00
2023-03-05T05:39:58.317Z,16.00
2023-03-05T05:40:58.312Z,20.00
2023-03-05T05:41:58.274Z,20.00
2023-03-05T05:42:58.290Z,24.00
2023-03-05T05:43:58.254Z,32.00
2023-03-05T05:44:58.239Z,36.00
2023-03-05T05:45:58.387Z,44.00
2023-03-05T05:46:58.217Z,56.00
2023-03-05T05:47:58.221Z,64.00
2023-03-05T05:48:58.199Z,76.00
2023-03-05T05:49:58.174Z,88.00
2023-03-05T05:50:58.168Z,100.00
2023-03-05T05:51:58.194Z,116.00
2023-03-05T05:52:58.164Z,132.00
2023-03-05T05:53:58.137Z,148.00
2023-03-05T05:54:58.117Z,168.00
2023-03-05T05:55:58.170Z,188.00
2023-03-05T05:56:58.092Z,208.00
2023-03-05T05:57:58.134Z,232.00
2023-03-05T05:58:58.080Z,256.00
2023-03-05T05:59:58.049Z,284.00
2023-03-05T06:00:58.036Z,308.00
2023-03-05T06:01:58.070Z,336.00
2023-03-05T06:02:58.156Z,364.00
2023-03-05T06:03:58.062Z,388.00
2023-03-05T06:04:58.405Z,416.00
2023-03-05T06:05:57.996Z,444.00
2023-03-05T06:06:57.996Z,472.00
2023-03-05T06:07:57.991Z,500.00
2023-03-05T06:08:57.981Z,524.00
2023-03-05T06:09:57.973Z,552.00
2023-03-05T06:10:57.925Z,580.00
2023-03-05T06:11:57.914Z,616.00
2023-03-05T06:12:57.907Z,648.00
2023-03-05T06:13:57.888Z,672.00
2023-03-05T06:14:57.875Z,704.00
2023-03-05T06:15:57.884Z,732.00
2023-03-05T06:16:57.849Z,752.00
2023-03-05T06:17:57.852Z,784.00
2023-03-05T06:18:57.862Z,828.00
2023-03-05T06:19:57.813Z,916.00
2023-03-05T06:20:57.801Z,1060.00
2023-03-05T06:21:57.859Z,1120.00
2023-03-05T06:22:57.794Z,1068.00
2023-03-05T06:23:57.780Z,1024.00
2023-03-05T06:24:57.781Z,1000.00
2023-03-05T06:25:57.726Z,996.00
2023-03-05T06:26:57.732Z,1004.00
2023-03-05T06:27:57.732Z,1044.00
2023-03-05T06:28:57.715Z,1112.00
2023-03-05T06:29:57.725Z,1172.00
2023-03-05T06:30:57.722Z,1288.00
2023-03-05T06:31:57.725Z,1504.00
2023-03-05T06:32:57.736Z,1644.00
2023-03-05T06:33:57.667Z,1840.00
2023-03-05T06:34:57.625Z,1964.00
2023-03-05T06:35:57.654Z,2036.00
2023-03-05T06:36:57.603Z,2084.00
2023-03-05T06:37:57.582Z,2144.00
2023-03-05T06:38:57.589Z,2192.00
2023-03-05T06:39:57.579Z,2224.00
2023-03-05T06:40:57.548Z,2244.00
2023-03-05T06:41:57.546Z,2268.00
2023-03-05T06:42:57.516Z,2328.00
2023-03-05T06:43:57.524Z,2432.00
2023-03-05T06:44:57.495Z,2588.00
2023-03-05T06:45:57.565Z,2744.00
2023-03-05T06:46:57.464Z,2868.00
2023-03-05T06:47:57.459Z,2916.00
2023-03-05T06:48:57.489Z,2868.00
2023-03-05T06:49:57.438Z,2808.00
2023-03-05T06:50:57.444Z,2744.00
2023-03-05T06:51:57.450Z,2704.00
2023-03-05T06:52:57.402Z,2740.00
2023-03-05T06:53:57.396Z,2876.00
2023-03-05T06:54:57.373Z,3056.00
2023-03-05T06:55:57.364Z,3180.00
2023-03-05T06:56:57.368Z,3248.00
2023-03-05T06:57:57.370Z,3300.00
2023-03-05T06:58:57.358Z,3408.00
2023-03-05T06:59:57.306Z,3540.00
2023-03-05T07:00:57.309Z,3700.00
2023-03-05T07:01:57.338Z,3860.00
2023-03-05T07:02:57.284Z,3948.00
2023-03-05T07:03:57.289Z,3928.00
2023-03-05T07:04:57.268Z,3952.00
2023-03-05T07:05:57.230Z,4004.00
2023-03-05T07:06:57.210Z,4056.00
2023-03-05T07:07:57.268Z,4144.00
2023-03-05T07:08:57.199Z,4268.00
2023-03-05T07:09:57.201Z,4424.00
2023-03-05T07:10:57.160Z,4560.00
2023-03-05T07:11:57.146Z,4744.00
2023-03-05T07:12:57.141Z,4924.00
2023-03-05T07:13:57.144Z,5112.00
2023-03-05T07:14:57.118Z,5264.00
2023-03-05T07:15:57.151Z,5400.00
2023-03-05T07:16:57.089Z,5532.00
2023-03-05T07:17:57.114Z,5684.00
2023-03-05T07:18:57.093Z,5824.00
2023-03-05T07:19:57.046Z,5996.00
2023-03-05T07:20:57.057Z,6212.00
2023-03-05T07:21:57.086Z,6484.00
2023-03-05T07:22:57.045Z,6648.00
2023-03-05T07:23:57.050Z,6676.00
2023-03-05T07:24:57.110Z,6648.00
2023-03-05T07:25:57.001Z,6608.00
2023-03-05T07:26:56.979Z,6672.00
2023-03-05T07:27:57.014Z,6780.00
2023-03-05T07:28:56.931Z,6848.00
2023-03-05T07:29:56.929Z,6872.00
2023-03-05T07:30:57.010Z,6828.00
2023-03-05T07:31:56.901Z,6812.00
2023-03-05T07:32:56.874Z,6856.00
2023-03-05T07:33:56.918Z,6916.00
2023-03-05T07:34:56.880Z,6976.00
2023-03-05T07:35:56.908Z,7076.00
2023-03-05T07:36:56.854Z,7216.00
2023-03-05T07:37:56.822Z,7424.00
2023-03-05T07:38:56.859Z,7576.00
2023-03-05T07:39:57.138Z,7656.00
2023-03-05T07:40:56.783Z,7640.00
2023-03-05T07:41:56.776Z,7676.00
2023-03-05T07:42:56.784Z,7892.00
2023-03-05T07:43:56.768Z,8292.00
2023-03-05T07:44:56.727Z,8740.00
2023-03-05T07:45:56.840Z,9180.00
2023-03-05T07:46:56.709Z,9556.00
2023-03-05T07:47:56.703Z,9824.00
2023-03-05T07:48:56.682Z,10036.00
2023-03-05T07:49:56.658Z,10356.00
2023-03-05T07:50:56.666Z,10748.00
2023-03-05T07:51:56.664Z,11128.00
2023-03-05T07:52:56.630Z,11332.00
2023-03-05T07:53:56.640Z,11420.00
2023-03-05T07:54:56.609Z,11420.00
2023-03-05T07:55:56.604Z,11388.00
2023-03-05T07:56:56.598Z,11472.00
2023-03-05T07:57:56.606Z,11596.00
2023-03-05T07:58:56.552Z,11692.00
2023-03-05T07:59:56.537Z,11820.00
2023-03-05T08:00:56.538Z,11716.00
2023-03-05T08:01:56.523Z,11592.00
2023-03-05T08:02:56.517Z,13068.00
2023-03-05T08:03:56.657Z,11740.00
2023-03-05T08:04:56.494Z,11964.00
2023-03-05T08:05:56.469Z,12284.00
2023-03-05T08:06:56.483Z,12576.00
2023-03-05T08:07:56.431Z,12968.00
2023-03-05T08:08:56.427Z,15232.00
2023-03-05T08:09:56.449Z,13280.00
2023-03-05T08:10:56.387Z,13376.00
2023-03-05T08:11:56.399Z,13180.00
2023-03-05T08:12:56.365Z,13224.00
2023-03-05T08:13:56.359Z,13400.00
2023-03-05T08:14:56.350Z,13736.00
2023-03-05T08:15:56.405Z,14192.00
2023-03-05T08:16:56.318Z,14304.00
2023-03-05T08:17:56.327Z,14456.00
2023-03-05T08:18:56.293Z,14728.00
2023-03-05T08:19:56.269Z,14880.00
2023-03-05T08:20:56.269Z,14640.00
2023-03-05T08:21:56.511Z,14328.00
2023-03-05T08:22:56.244Z,15904.00
2023-03-05T08:23:56.229Z,16896.00
2023-03-05T08:24:56.228Z,13256.00
2023-03-05T08:25:56.209Z,13188.00
2023-03-05T08:26:56.210Z,12924.00
2023-03-05T08:27:56.200Z,12916.00
2023-03-05T08:28:56.176Z,14256.00
2023-03-05T08:29:56.145Z,14688.00
2023-03-05T08:30:56.183Z,13140.00
2023-03-05T08:31:56.127Z,13124.00
2023-03-05T08:32:56.116Z,13560.00
2023-03-05T08:33:56.188Z,13972.00
2023-03-05T08:34:56.083Z,14200.00
2023-03-05T08:35:56.103Z,14088.00
2023-03-05T08:36:56.052Z,13868.00
2023-03-05T08:37:56.121Z,13544.00
2023-03-05T08:38:56.048Z,13252.00
2023-03-05T08:39:56.035Z,13320.00
2023-03-05T08:40:56.020Z,13168.00
2023-03-05T08:41:55.984Z,13592.00
2023-03-05T08:42:55.992Z,14416.00
2023-03-05T08:43:55.966Z,16224.00
2023-03-05T08:44:55.956Z,17088.00
2023-03-05T08:45:55.982Z,16736.00
2023-03-05T08:46:56.025Z,16832.00
2023-03-05T08:47:55.961Z,17056.00
2023-03-05T08:48:55.916Z,17088.00
2023-03-05T08:49:55.905Z,17440.00
2023-03-05T08:50:55.869Z,18080.00
2023-03-05T08:51:55.915Z,18304.00
2023-03-05T08:52:55.873Z,18624.00
2023-03-05T08:53:55.827Z,18976.00
2023-03-05T08:54:55.809Z,18560.00
2023-03-05T08:55:55.814Z,19072.00
2023-03-05T08:56:55.803Z,18112.00
2023-03-05T08:57:55.932Z,17856.00
2023-03-05T08:58:55.776Z,17504.00
2023-03-05T08:59:55.773Z,17184.00
2023-03-05T09:00:55.749Z,16704.00
2023-03-05T09:01:55.870Z,16192.00
2023-03-05T09:02:55.746Z,15840.00
2023-03-05T09:03:55.747Z,15840.00
2023-03-05T09:04:55.700Z,16160.00
2023-03-05T09:05:55.684Z,16736.00
2023-03-05T09:06:55.679Z,17344.00
2023-03-05T09:07:55.721Z,19648.00
2023-03-05T09:08:55.683Z,17792.00
2023-03-05T09:09:55.661Z,17728.00
2023-03-05T09:10:55.609Z,17760.00
2023-03-05T09:11:55.598Z,18016.00
2023-03-05T09:12:55.584Z,18656.00
2023-03-05T09:13:55.578Z,19136.00
2023-03-05T09:14:55.553Z,19552.00
2023-03-05T09:15:55.646Z,21920.00
2023-03-05T09:16:55.531Z,20736.00
2023-03-05T09:17:55.520Z,20864.00
2023-03-05T09:18:55.538Z,21024.00
2023-03-05T09:19:55.499Z,21056.00
2023-03-05T09:20:55.472Z,21120.00
2023-03-05T09:21:57.097Z,20352.00
2023-03-05T09:22:55.463Z,19552.00
2023-03-05T09:23:55.499Z,18784.00
2023-03-05T09:24:55.586Z,18176.00
2023-03-05T09:25:55.439Z,18176.00
2023-03-05T09:26:55.407Z,18816.00
2023-03-05T09:27:55.423Z,19776.00
2023-03-05T09:28:55.370Z,20704.00
2023-03-05T09:29:55.384Z,19136.00
2023-03-05T09:30:55.340Z,18464.00
2023-03-05T09:31:55.437Z,18336.00
2023-03-05T09:32:55.319Z,18976.00
2023-03-05T09:33:55.353Z,19712.00
2023-03-05T09:34:55.310Z,20160.00
2023-03-05T09:35:55.415Z,19840.00
2023-03-05T09:36:55.281Z,19424.00
2023-03-05T09:37:55.297Z,19456.00
2023-03-05T09:38:55.251Z,19840.00
2023-03-05T09:39:55.285Z,20768.00
2023-03-05T09:40:55.214Z,20448.00
2023-03-05T09:41:55.222Z,20672.00
2023-03-05T09:42:55.192Z,20352.00
2023-03-05T09:43:55.197Z,19936.00
2023-03-05T09:44:55.243Z,20256.00
2023-03-05T09:45:55.237Z,21152.00
2023-03-05T09:46:55.149Z,20800.00
2023-03-05T09:47:55.167Z,20192.00
2023-03-05T09:48:55.150Z,20192.00
2023-03-05T09:49:55.115Z,19520.00
2023-03-05T09:50:55.115Z,19040.00
2023-03-05T09:51:55.133Z,19040.00
2023-03-05T09:52:55.065Z,19072.00
2023-03-05T09:53:55.062Z,19232.00
2023-03-05T09:54:55.041Z,19552.00
2023-03-05T09:55:55.069Z,18912.00
2023-03-05T09:56:55.020Z,18432.00
2023-03-05T09:57:55.040Z,18656.00
2023-03-05T09:58:56.230Z,19424.00
2023-03-05T09:59:54.995Z,20448.00
2023-03-05T10:00:54.982Z,21024.00
2023-03-05T10:01:54.961Z,21888.00
2023-03-05T10:02:55.005Z,22752.00
2023-03-05T10:03:54.964Z,23904.00
2023-03-05T10:04:54.960Z,23712.00
2023-03-05T10:05:54.903Z,23808.00
2023-03-05T10:06:54.897Z,24352.00
2023-03-05T10:07:54.910Z,24800.00
2023-03-05T10:08:54.864Z,25280.00
2023-03-05T10:09:54.907Z,25664.00
2023-03-05T10:10:54.838Z,26336.00
2023-03-05T10:11:54.825Z,29024.00
2023-03-05T10:12:54.804Z,28160.00
2023-03-05T10:13:54.791Z,27936.00
2023-03-05T10:14:54.790Z,29792.00
2023-03-05T10:15:54.799Z,30816.00
2023-03-05T10:16:54.802Z,32192.00
2023-03-05T10:17:54.749Z,33728.00
2023-03-05T10:18:54.729Z,36512.00
2023-03-05T10:19:54.714Z,37760.00
2023-03-05T10:20:54.705Z,38944.00
2023-03-05T10:21:54.725Z,39296.00
2023-03-05T10:22:54.685Z,38912.00
2023-03-05T10:23:54.675Z,37888.00
2023-03-05T10:24:54.664Z,32992.00
2023-03-05T10:25:54.644Z,32128.00
2023-03-05T10:26:54.661Z,29440.00
2023-03-05T10:27:54.641Z,28032.00
2023-03-05T10:28:54.611Z,23968.00
2023-03-05T10:29:54.602Z,23488.00
2023-03-05T10:30:54.623Z,19904.00
2023-03-05T10:31:54.599Z,17312.00
2023-03-05T10:32:54.555Z,14624.00
2023-03-05T10:33:54.589Z,13140.00
2023-03-05T10:34:54.523Z,12144.00
2023-03-05T10:35:54.530Z,11172.00
2023-03-05T10:36:56.190Z,10456.00
2023-03-05T10:37:54.504Z,10184.00
2023-03-05T10:38:54.470Z,9972.00
2023-03-05T10:39:54.487Z,9668.00
2023-03-05T10:40:54.464Z,9044.00
2023-03-05T10:41:54.442Z,8560.00
2023-03-05T10:42:54.429Z,8064.00
2023-03-05T10:43:54.412Z,7728.00
2023-03-05T10:44:54.398Z,7432.00
2023-03-05T10:45:54.479Z,7136.00
2023-03-05T10:46:55.975Z,6988.00
2023-03-05T10:47:54.386Z,6836.00
2023-03-05T10:48:54.354Z,6684.00
2023-03-05T10:49:54.342Z,6624.00
2023-03-05T10:50:54.325Z,6580.00
2023-03-05T10:51:54.371Z,6512.00
2023-03-05T10:52:54.294Z,6524.00
2023-03-05T10:53:54.309Z,6592.00
2023-03-05T10:54:54.348Z,6628.00
2023-03-05T10:55:54.278Z,6612.00
2023-03-05T10:56:54.242Z,6568.00
2023-03-05T10:57:54.303Z,6636.00
2023-03-05T10:58:54.228Z,6724.00
2023-03-05T10:59:54.266Z,6800.00
2023-03-05T11:00:55.174Z,6828.00
2023-03-05T11:01:54.177Z,6940.00
2023-03-05T11:02:54.260Z,7084.00
2023-03-05T11:03:54.183Z,7316.00
2023-03-05T11:04:54.146Z,7636.00
2023-03-05T11:05:54.183Z,8144.00
2023-03-05T11:06:54.171Z,8652.00
2023-03-05T11:07:54.122Z,9060.00
2023-03-05T11:08:54.104Z,9360.00
2023-03-05T11:09:54.150Z,9692.00
2023-03-05T11:10:54.055Z,10064.00
2023-03-05T11:11:54.054Z,10196.00
2023-03-05T11:12:54.069Z,10352.00
2023-03-05T11:13:54.065Z,10496.00
2023-03-05T11:14:54.004Z,10652.00
2023-03-05T11:15:54.038Z,10888.00
2023-03-05T11:16:53.995Z,11016.00
2023-03-05T11:17:53.994Z,10944.00
2023-03-05T11:18:53.982Z,10868.00
2023-03-05T11:19:53.959Z,10932.00
2023-03-05T11:20:53.930Z,11004.00
2023-03-05T11:21:53.972Z,11256.00
2023-03-05T11:22:53.898Z,11676.00
2023-03-05T11:23:53.885Z,12076.00
2023-03-05T11:24:53.883Z,12552.00
2023-03-05T11:25:53.869Z,13004.00
2023-03-05T11:26:53.876Z,13216.00
2023-03-05T11:27:54.886Z,13424.00
2023-03-05T11:28:53.848Z,13504.00
2023-03-05T11:29:53.817Z,13580.00
2023-03-05T11:30:53.854Z,13720.00
2023-03-05T11:31:53.782Z,13892.00
2023-03-05T11:32:53.804Z,14068.00
2023-03-05T11:33:53.785Z,14356.00
2023-03-05T11:34:53.754Z,14736.00
2023-03-05T11:35:53.761Z,15296.00
2023-03-05T11:36:53.718Z,16160.00
2023-03-05T11:37:53.721Z,15904.00
2023-03-05T11:38:53.735Z,16288.00
2023-03-05T11:39:53.784Z,17344.00
2023-03-05T11:40:53.674Z,28640.00
2023-03-05T11:41:53.689Z,21152.00
2023-03-05T11:42:53.650Z,19968.00
2023-03-05T11:43:53.627Z,20096.00
2023-03-05T11:44:53.622Z,20512.00
2023-03-05T11:45:53.653Z,22048.00
2023-03-05T11:46:53.627Z,21312.00
2023-03-05T11:47:53.596Z,21568.00
2023-03-05T11:48:53.567Z,21824.00
2023-03-05T11:49:53.564Z,21664.00
2023-03-05T11:50:53.580Z,22368.00
2023-03-05T11:51:53.562Z,21568.00
2023-03-05T11:52:53.529Z,22016.00
2023-03-05T11:53:53.500Z,31232.00
2023-03-05T11:54:53.501Z,31680.00
2023-03-05T11:55:53.512Z,28032.00
2023-03-05T11:56:53.476Z,23648.00
2023-03-05T11:57:53.504Z,22848.00
2023-03-05T11:58:53.469Z,22880.00
2023-03-05T11:59:53.457Z,23072.00
2023-03-05T12:00:53.485Z,22976.00
2023-03-05T12:01:53.403Z,22336.00
2023-03-05T12:02:53.509Z,21696.00
2023-03-05T12:03:53.475Z,21248.00
2023-03-05T12:04:53.354Z,20896.00
2023-03-05T12:05:53.354Z,19904.00
2023-03-05T12:06:53.344Z,18688.00
2023-03-05T12:07:53.330Z,17984.00
2023-03-05T12:08:53.321Z,17632.00
2023-03-05T12:09:53.395Z,17696.00
2023-03-05T12:10:53.288Z,17888.00
2023-03-05T12:11:53.272Z,18144.00
2023-03-05T12:12:53.260Z,18272.00
2023-03-05T12:13:53.244Z,18080.00
2023-03-05T12:14:53.266Z,17568.00
2023-03-05T12:15:53.257Z,17056.00
2023-03-05T12:16:53.239Z,16672.00
2023-03-05T12:17:53.205Z,16288.00
2023-03-05T12:18:53.176Z,15936.00
2023-03-05T12:19:53.182Z,15520.00
2023-03-05T12:20:53.328Z,15100.00
2023-03-05T12:21:53.179Z,14628.00
2023-03-05T12:22:53.126Z,14208.00
2023-03-05T12:23:53.144Z,13680.00
2023-03-05T12:24:53.100Z,13180.00
2023-03-05T12:25:53.114Z,12952.00
2023-03-05T12:26:53.086Z,12900.00
2023-03-05T12:27:53.089Z,13144.00
2023-03-05T12:28:53.065Z,13312.00
2023-03-05T12:29:53.096Z,13328.00